createdAt,value
2016-05-12T00:00:45.526Z,16.56
2016-05-12T00:01:45.403Z,16.5
2016-05-12T00:02:45.594Z,16.48
2016-05-12T00:03:45.691Z,16.44
2016-05-12T00:04:45.677Z,16.45
2016-05-12T00:05:45.727Z,16.33
2016-05-12T00:06:45.838Z,16.31
2016-05-12T00:07:45.810Z,16.31
2016-05-12T00:08:45.844Z,16.33
2016-05-12T00:09:45.893Z,16.26
2016-05-12T00:10:46.038Z,16.3
2016-05-12T00:11:45.977Z,16.31
2016-05-12T00:12:46.011Z,16.34
2016-05-12T00:13:46.093Z,16.31
2016-05-12T00:14:46.110Z,16.31
2016-05-12T00:15:45.988Z,16.31
2016-05-12T00:16:46.037Z,16.3
2016-05-12T00:17:46.259Z,16.25
2016-05-12T00:18:46.277Z,16.18
2016-05-12T00:19:46.296Z,16.16
2016-05-12T00:20:46.376Z,16.16
2016-05-12T00:21:46.254Z,16.2
2016-05-12T00:22:46.428Z,16.26
2016-05-12T00:23:46.307Z,16.2
2016-05-12T00:24:46.560Z,16.23
2016-05-12T00:25:46.453Z,16.16
2016-05-12T00:26:46.595Z,16.2
2016-05-12T00:27:46.661Z,16.12
2016-05-12T00:28:46.366Z,16.07
2016-05-12T00:29:46.431Z,16.09
2016-05-12T00:30:46.622Z,16.11
2016-05-12T00:31:46.828Z,16.04
2016-05-12T00:32:46.862Z,16.04
2016-05-12T00:33:46.896Z,16.11
2016-05-12T00:34:46.930Z,16.07
2016-05-12T00:35:47.011Z,16.03
2016-05-12T00:36:47.029Z,16
2016-05-12T00:37:47.063Z,16
2016-05-12T00:38:47.128Z,16.04
2016-05-12T00:39:46.991Z,15.99
2016-05-12T00:40:47.196Z,16.04
2016-05-12T00:41:47.230Z,15.89
2016-05-12T00:42:47.326Z,15.94
2016-05-12T00:43:47.298Z,15.94
2016-05-12T00:44:47.346Z,15.92
2016-05-12T00:45:47.303Z,15.76
2016-05-12T00:46:47.463Z,15.66
2016-05-12T00:47:47.340Z,15.57
2016-05-12T00:48:47.515Z,15.54
2016-05-12T00:49:47.564Z,15.46
2016-05-12T00:50:47.645Z,15.43
2016-05-12T00:51:47.678Z,15.39
2016-05-12T00:52:47.587Z,15.28
2016-05-12T00:53:47.731Z,15.28
2016-05-12T00:54:47.765Z,15.19
2016-05-12T00:55:47.876Z,15.19
2016-05-12T00:56:47.911Z,15.13
2016-05-12T00:57:47.992Z,15.11
2016-05-12T00:58:48.010Z,15.02
2016-05-12T00:59:48.028Z,15.03
2016-05-12T01:00:48.139Z,15.11
2016-05-12T01:01:48.534Z,15.06
2016-05-12T01:02:47.990Z,14.99
2016-05-12T01:03:48.258Z,14.98
2016-05-12T01:04:49.713Z,14.94
2016-05-12T01:05:48.216Z,14.98
2016-05-12T01:06:48.266Z,14.95
2016-05-12T01:07:48.316Z,14.95
2016-05-12T01:08:48.397Z,14.95
2016-05-12T01:09:48.399Z,14.95
2016-05-12T01:10:48.433Z,15.01
2016-05-12T01:11:48.466Z,14.93
2016-05-12T01:12:48.501Z,14.93
2016-05-12T01:13:48.410Z,14.91
2016-05-12T01:14:48.694Z,14.91
2016-05-12T01:15:48.713Z,14.88
2016-05-12T01:16:48.683Z,14.83
2016-05-12T01:17:48.748Z,14.8
2016-05-12T01:18:48.610Z,14.88
2016-05-12T01:19:48.832Z,14.81
2016-05-12T01:20:48.834Z,14.83
2016-05-12T01:21:48.869Z,14.86
2016-05-12T01:22:48.637Z,14.86
2016-05-12T01:23:48.968Z,14.94
2016-05-12T01:24:49.002Z,14.9
2016-05-12T01:25:48.770Z,14.9
2016-05-12T01:26:49.101Z,14.87
2016-05-12T01:27:49.150Z,14.94
2016-05-12T01:28:49.169Z,14.91
2016-05-12T01:29:49.218Z,14.9
2016-05-12T01:30:49.253Z,14.83
2016-05-12T01:31:49.036Z,14.95
2016-05-12T01:32:49.351Z,14.95
2016-05-12T01:33:49.416Z,14.98
2016-05-12T01:34:49.419Z,14.94
2016-05-12T01:35:49.453Z,14.91
2016-05-12T01:36:49.503Z,14.94
2016-05-12T01:37:49.787Z,14.94
2016-05-12T01:38:49.586Z,14.95
2016-05-12T01:39:49.636Z,14.93
2016-05-12T01:40:49.732Z,14.94
2016-05-12T01:41:49.423Z,15.01
2016-05-12T01:42:49.582Z,14.95
2016-05-12T01:43:49.787Z,15.02
2016-05-12T01:44:49.837Z,14.95
2016-05-12T01:45:49.871Z,14.9
2016-05-12T01:46:49.921Z,14.87
2016-05-12T01:47:49.970Z,14.91
2016-05-12T01:48:50.004Z,14.83
2016-05-12T01:49:50.022Z,14.84
2016-05-12T01:50:50.071Z,14.86
2016-05-12T01:51:50.168Z,14.88
2016-05-12T01:52:50.155Z,14.84
2016-05-12T01:53:50.048Z,14.71
2016-05-12T01:54:50.082Z,14.75
2016-05-12T01:55:50.320Z,14.74
2016-05-12T01:56:50.338Z,14.69
2016-05-12T01:57:50.356Z,14.74
2016-05-12T01:58:50.406Z,14.74
2016-05-12T01:59:50.471Z,14.68
2016-05-12T02:00:50.489Z,14.72
2016-05-12T02:01:50.835Z,14.72
2016-05-12T02:02:50.588Z,14.69
2016-05-12T02:03:50.482Z,14.71
2016-05-12T02:04:50.656Z,14.72
2016-05-12T02:05:50.549Z,14.71
2016-05-12T02:06:50.786Z,14.69
2016-05-12T02:07:50.774Z,14.78
2016-05-12T02:08:50.823Z,14.75
2016-05-12T02:09:50.857Z,14.78
2016-05-12T02:10:50.922Z,14.78
2016-05-12T02:11:50.941Z,14.71
2016-05-12T02:12:50.974Z,14.72
2016-05-12T02:13:51.008Z,14.65
2016-05-12T02:14:51.074Z,14.64
2016-05-12T02:15:50.935Z,14.62
2016-05-12T02:16:50.861Z,14.64
2016-05-12T02:17:51.191Z,14.62
2016-05-12T02:18:51.224Z,14.53
2016-05-12T02:19:51.275Z,14.64
2016-05-12T02:20:51.340Z,14.52
2016-05-12T02:21:51.374Z,14.5
2016-05-12T02:22:51.392Z,14.5
2016-05-12T02:23:51.270Z,14.52
2016-05-12T02:24:51.320Z,14.49
2016-05-12T02:25:51.510Z,14.49
2016-05-12T02:26:51.559Z,14.57
2016-05-12T02:27:51.453Z,14.57
2016-05-12T02:28:51.689Z,14.5
2016-05-12T02:29:51.536Z,14.46
2016-05-12T02:30:51.711Z,14.5
2016-05-12T02:31:51.635Z,14.49
2016-05-12T02:32:51.810Z,14.47
2016-05-12T02:33:51.828Z,14.44
2016-05-12T02:34:51.892Z,14.47
2016-05-12T02:35:51.975Z,14.38
2016-05-12T02:36:51.820Z,14.35
2016-05-12T02:37:52.010Z,14.42
2016-05-12T02:38:52.045Z,14.38
2016-05-12T02:39:52.235Z,14.46
2016-05-12T02:40:52.128Z,14.35
2016-05-12T02:41:52.162Z,14.32
2016-05-12T02:42:52.274Z,14.31
2016-05-12T02:43:52.261Z,14.37
2016-05-12T02:44:52.294Z,14.34
2016-05-12T02:45:52.376Z,14.34
2016-05-12T02:46:52.222Z,14.34
2016-05-12T02:47:52.397Z,14.32
2016-05-12T02:48:52.446Z,14.31
2016-05-12T02:49:52.527Z,14.31
2016-05-12T02:50:52.546Z,14.29
2016-05-12T02:51:52.424Z,14.37
2016-05-12T02:52:52.629Z,14.31
2016-05-12T02:53:52.538Z,14.25
2016-05-12T02:54:52.712Z,14.21
2016-05-12T02:55:52.809Z,14.32
2016-05-12T02:56:52.623Z,14.17
2016-05-12T02:57:52.658Z,14.16
2016-05-12T02:58:52.708Z,14.13
2016-05-12T02:59:52.898Z,14.12
2016-05-12T03:00:52.979Z,14.24
2016-05-12T03:01:52.965Z,14.27
2016-05-12T03:02:53.015Z,14.21
2016-05-12T03:03:52.924Z,14.28
2016-05-12T03:04:53.162Z,14.21
2016-05-12T03:05:53.148Z,14.14
2016-05-12T03:06:53.198Z,14.13
2016-05-12T03:07:53.247Z,14.12
2016-05-12T03:08:53.266Z,14.06
2016-05-12T03:09:53.300Z,14.06
2016-05-12T03:10:53.365Z,14.04
2016-05-12T03:11:53.227Z,13.99
2016-05-12T03:12:53.433Z,13.99
2016-05-12T03:13:53.311Z,13.92
2016-05-12T03:14:53.391Z,13.89
2016-05-12T03:15:53.550Z,13.94
2016-05-12T03:16:53.302Z,13.87
2016-05-12T03:17:53.478Z,13.77
2016-05-12T03:18:53.715Z,13.88
2016-05-12T03:19:53.718Z,13.83
2016-05-12T03:20:53.767Z,13.87
2016-05-12T03:21:53.660Z,13.84
2016-05-12T03:22:53.709Z,13.84
2016-05-12T03:23:53.728Z,13.87
2016-05-12T03:24:53.934Z,13.87
2016-05-12T03:25:54.015Z,13.83
2016-05-12T03:26:54.001Z,13.81
2016-05-12T03:27:54.051Z,13.81
2016-05-12T03:28:53.945Z,13.79
2016-05-12T03:29:53.978Z,13.84
2016-05-12T03:30:54.168Z,13.83
2016-05-12T03:31:54.062Z,13.81
2016-05-12T03:32:54.159Z,13.88
2016-05-12T03:33:54.286Z,13.88
2016-05-12T03:34:54.023Z,13.84
2016-05-12T03:35:54.213Z,13.83
2016-05-12T03:36:54.278Z,13.89
2016-05-12T03:37:54.328Z,13.91
2016-05-12T03:38:54.487Z,13.99
2016-05-12T03:39:54.568Z,13.96
2016-05-12T03:40:54.414Z,13.96
2016-05-12T03:41:54.604Z,13.98
2016-05-12T03:42:54.669Z,13.91
2016-05-12T03:43:54.688Z,13.89
2016-05-12T03:44:54.738Z,13.94
2016-05-12T03:45:54.771Z,13.87
2016-05-12T03:46:54.680Z,13.87
2016-05-12T03:47:54.714Z,13.91
2016-05-12T03:48:54.889Z,13.8
2016-05-12T03:49:54.938Z,13.83
2016-05-12T03:50:54.988Z,13.83
2016-05-12T03:51:55.022Z,13.81
2016-05-12T03:52:55.072Z,13.73
2016-05-12T03:53:55.121Z,13.7
2016-05-12T03:54:55.140Z,13.76
2016-05-12T03:55:55.017Z,13.74
2016-05-12T03:56:55.051Z,13.69
2016-05-12T03:57:55.288Z,13.62
2016-05-12T03:58:55.307Z,13.58
2016-05-12T03:59:55.341Z,13.61
2016-05-12T04:00:55.421Z,13.63
2016-05-12T04:01:55.424Z,13.55
2016-05-12T04:02:55.473Z,13.61
2016-05-12T04:03:55.351Z,13.69
2016-05-12T04:04:55.635Z,13.7
2016-05-12T04:05:55.701Z,13.67
2016-05-12T04:06:55.703Z,13.73
2016-05-12T04:07:55.690Z,13.65
2016-05-12T04:08:55.724Z,13.7
2016-05-12T04:09:55.586Z,13.67
2016-05-12T04:10:55.620Z,13.69
2016-05-12T04:11:55.842Z,13.73
2016-05-12T04:12:55.891Z,13.71
2016-05-12T04:13:55.738Z,13.77
2016-05-12T04:14:55.958Z,13.8
2016-05-12T04:15:55.836Z,13.8
2016-05-12T04:16:55.871Z,13.84
2016-05-12T04:17:55.919Z,13.99
2016-05-12T04:18:55.955Z,13.92
2016-05-12T04:19:56.160Z,13.92
2016-05-12T04:20:56.194Z,14.02
2016-05-12T04:21:56.274Z,13.98
2016-05-12T04:22:56.277Z,14.07
2016-05-12T04:23:56.310Z,14.12
2016-05-12T04:24:56.345Z,14.06
2016-05-12T04:25:56.410Z,13.99
2016-05-12T04:26:56.304Z,14.09
2016-05-12T04:27:56.478Z,14.06
2016-05-12T04:28:56.528Z,14.07
2016-05-12T04:29:56.577Z,14.1
2016-05-12T04:30:56.596Z,14.12
2016-05-12T04:31:56.645Z,14.13
2016-05-12T04:32:56.679Z,14.24
2016-05-12T04:33:56.745Z,14.27
2016-05-12T04:34:56.762Z,14.17
2016-05-12T04:35:56.797Z,14.32
2016-05-12T04:36:56.845Z,14.27
2016-05-12T04:37:56.881Z,14.27
2016-05-12T04:38:56.931Z,14.35
2016-05-12T04:39:56.979Z,14.35
2016-05-12T04:40:57.044Z,14.38
2016-05-12T04:41:57.047Z,14.47
2016-05-12T04:42:57.096Z,14.49
2016-05-12T04:43:56.959Z,14.56
2016-05-12T04:44:57.165Z,14.53
2016-05-12T04:45:57.199Z,14.6
2016-05-12T04:46:57.248Z,14.5
2016-05-12T04:47:57.344Z,14.5
2016-05-12T04:48:57.175Z,14.6
2016-05-12T04:49:57.224Z,14.68
2016-05-12T04:50:57.494Z,14.67
2016-05-12T04:51:57.449Z,14.78
2016-05-12T04:52:57.483Z,14.75
2016-05-12T04:53:57.532Z,14.68
2016-05-12T04:54:57.598Z,14.74
2016-05-12T04:55:57.616Z,14.72
2016-05-12T04:56:57.650Z,14.78
2016-05-12T04:57:57.731Z,14.71
2016-05-12T04:58:58.187Z,14.81
2016-05-12T04:59:58.252Z,14.86
2016-05-12T05:00:58.098Z,14.88
2016-05-12T05:01:57.570Z,14.9
2016-05-12T05:02:57.900Z,14.9
2016-05-12T05:03:57.623Z,14.78
2016-05-12T05:04:58.015Z,14.88
2016-05-12T05:05:58.034Z,14.94
2016-05-12T05:06:57.771Z,14.91
2016-05-12T05:07:58.086Z,14.98
2016-05-12T05:08:58.198Z,14.93
2016-05-12T05:09:58.091Z,14.94
2016-05-12T05:10:58.219Z,15.02
2016-05-12T05:11:58.175Z,15.08
2016-05-12T05:12:58.334Z,15.09
2016-05-12T05:13:58.211Z,15.05
2016-05-12T05:14:58.386Z,15.09
2016-05-12T05:15:58.450Z,15.09
2016-05-12T05:16:58.485Z,15.06
2016-05-12T05:17:59.847Z,15.12
2016-05-12T05:18:58.584Z,15.12
2016-05-12T05:19:58.586Z,15.12
2016-05-12T05:20:58.855Z,15.12
2016-05-12T05:21:58.717Z,15.08
2016-05-12T05:22:58.719Z,15.2
2016-05-12T05:23:58.755Z,15.19
2016-05-12T05:24:58.804Z,15.27
2016-05-12T05:25:58.932Z,15.08
2016-05-12T05:26:58.902Z,15.09
2016-05-12T05:27:59.483Z,15.01
2016-05-12T05:28:58.985Z,15.06
2016-05-12T05:29:59.004Z,15.13
2016-05-12T05:30:59.429Z,15.08
2016-05-12T05:31:59.198Z,15.2
2016-05-12T05:32:59.121Z,15.19
2016-05-12T05:33:59.015Z,15.28
2016-05-12T05:34:59.268Z,15.27
2016-05-12T05:35:59.254Z,15.36
2016-05-12T05:36:59.304Z,15.35
2016-05-12T05:37:59.338Z,15.36
2016-05-12T05:38:59.373Z,15.43
2016-05-12T05:39:59.251Z,15.45
2016-05-12T05:40:59.300Z,15.42
2016-05-12T05:41:59.678Z,15.46
2016-05-12T05:42:59.539Z,15.49
2016-05-12T05:43:59.572Z,15.54
2016-05-12T05:44:59.623Z,15.56
2016-05-12T05:45:59.688Z,15.61
2016-05-12T05:46:59.706Z,15.57
2016-05-12T05:47:59.928Z,15.6
2016-05-12T05:48:59.477Z,15.64
2016-05-12T05:49:59.871Z,15.75
2016-05-12T05:51:00.139Z,15.72
2016-05-12T05:52:00.001Z,15.72
2016-05-12T05:53:00.425Z,15.76
2016-05-12T05:54:00.615Z,15.81
2016-05-12T05:55:00.024Z,15.93
2016-05-12T05:56:00.169Z,15.92
2016-05-12T05:56:59.999Z,15.96
2016-05-12T05:58:00.423Z,15.92
2016-05-12T05:59:00.613Z,15.97
2016-05-12T06:00:01.679Z,15.99
2016-05-12T06:01:00.385Z,16.04
2016-05-12T06:02:00.715Z,15.92
2016-05-12T06:03:00.374Z,16.06
2016-05-12T06:04:00.612Z,16.03
2016-05-12T06:05:00.474Z,16.04
2016-05-12T06:06:00.351Z,16.12
2016-05-12T06:07:00.557Z,16
2016-05-12T06:08:00.590Z,16.04
2016-05-12T06:09:00.640Z,16.07
2016-05-12T06:10:01.002Z,16.09
2016-05-12T06:11:03.115Z,16.06
2016-05-12T06:12:01.961Z,16.06
2016-05-12T06:13:00.886Z,16.22
2016-05-12T06:14:01.544Z,16.12
2016-05-12T06:15:03.266Z,16.03
2016-05-12T06:16:00.925Z,16.2
2016-05-12T06:17:01.084Z,16.22
2016-05-12T06:18:00.836Z,16.18
2016-05-12T06:19:00.870Z,16.25
2016-05-12T06:20:01.436Z,16.3
2016-05-12T06:21:01.157Z,16.31
2016-05-12T06:22:01.144Z,16.38
2016-05-12T06:23:01.522Z,16.49
2016-05-12T06:24:01.087Z,16.5
2016-05-12T06:25:01.277Z,16.52
2016-05-12T06:26:01.358Z,16.58
2016-05-12T06:27:01.408Z,16.65
2016-05-12T06:28:01.504Z,16.62
2016-05-12T06:29:01.444Z,16.62
2016-05-12T06:30:01.494Z,16.73
2016-05-12T06:31:01.621Z,16.77
2016-05-12T06:32:02.343Z,16.85
2016-05-12T06:33:03.517Z,16.89
2016-05-12T06:34:03.427Z,16.89
2016-05-12T06:35:04.695Z,16.96
2016-05-12T06:36:03.619Z,16.88
2016-05-12T06:37:03.919Z,16.88
2016-05-12T06:38:03.234Z,17.06
2016-05-12T06:39:03.690Z,16.96
2016-05-12T06:40:03.662Z,17
2016-05-12T06:41:02.915Z,17.06
2016-05-12T06:42:04.120Z,17.11
2016-05-12T06:43:03.248Z,17.13
2016-05-12T06:44:03.047Z,17.2
2016-05-12T06:45:03.565Z,17.22
2016-05-12T06:46:03.709Z,17.17
2016-05-12T06:47:04.008Z,17.33
2016-05-12T06:48:03.464Z,17.38
2016-05-12T06:49:04.419Z,17.35
2016-05-12T06:50:02.778Z,17.3
2016-05-12T06:51:03.058Z,17.33
2016-05-12T06:52:03.087Z,17.38
2016-05-12T06:53:02.477Z,17.41
2016-05-12T06:54:02.742Z,17.54
2016-05-12T06:55:03.947Z,17.5
2016-05-12T06:56:02.935Z,17.57
2016-05-12T06:57:03.358Z,17.59
2016-05-12T06:58:03.767Z,17.54
2016-05-12T06:59:03.801Z,17.59
2016-05-12T07:00:03.824Z,17.54
2016-05-12T07:01:03.161Z,17.69
2016-05-12T07:02:02.450Z,17.67
2016-05-12T07:03:03.334Z,17.74
2016-05-12T07:04:03.106Z,17.71
2016-05-12T07:05:03.502Z,17.73
2016-05-12T07:06:03.319Z,17.84
2016-05-12T07:07:05.293Z,17.87
2016-05-12T07:08:03.610Z,17.91
2016-05-12T07:09:03.802Z,17.87
2016-05-12T07:10:04.837Z,17.91
2016-05-12T07:11:03.731Z,17.94
2016-05-12T07:12:05.609Z,18
2016-05-12T07:13:03.831Z,18
2016-05-12T07:14:03.679Z,18.02
2016-05-12T07:15:03.713Z,18.13
2016-05-12T07:16:05.700Z,18.06
2016-05-12T07:17:04.688Z,18.06
2016-05-12T07:18:03.894Z,18.18
2016-05-12T07:19:04.850Z,18.19
2016-05-12T07:20:04.853Z,18.17
2016-05-12T07:21:04.120Z,18.19
2016-05-12T07:22:04.264Z,18.25
2016-05-12T07:23:04.361Z,18.31
2016-05-12T07:24:03.989Z,18.34
2016-05-12T07:25:04.257Z,18.34
2016-05-12T07:26:04.197Z,18.47
2016-05-12T07:27:04.683Z,18.52
2016-05-12T07:28:04.375Z,18.57
2016-05-12T07:29:04.814Z,18.61
2016-05-12T07:30:06.583Z,18.67
2016-05-12T07:31:07.195Z,18.67
2016-05-12T07:32:04.713Z,18.73
2016-05-12T07:33:04.513Z,18.67
2016-05-12T07:34:05.094Z,18.82
2016-05-12T07:35:04.658Z,18.73
2016-05-12T07:36:04.630Z,18.82
2016-05-12T07:37:04.649Z,18.84
2016-05-12T07:38:05.635Z,18.87
2016-05-12T07:39:04.951Z,18.92
2016-05-12T07:40:04.797Z,18.95
2016-05-12T07:41:04.675Z,19.02
2016-05-12T07:42:04.865Z,19.08
2016-05-12T07:43:05.962Z,19.11
2016-05-12T07:44:15.807Z,19.18
2016-05-12T07:45:08.390Z,19.17
2016-05-12T07:46:06.985Z,19.25
2016-05-12T07:47:07.223Z,19.28
2016-05-12T07:48:06.912Z,19.36
2016-05-12T07:49:06.400Z,19.39
2016-05-12T07:50:07.918Z,19.43
2016-05-12T07:51:07.201Z,19.54
2016-05-12T07:52:07.752Z,19.6
2016-05-12T07:53:10.754Z,19.55
2016-05-12T07:54:08.851Z,19.61
2016-05-12T07:55:08.884Z,19.66
2016-05-12T07:56:06.934Z,19.66
2016-05-12T07:57:05.531Z,19.69
2016-05-12T07:58:06.549Z,19.79
2016-05-12T07:59:05.520Z,19.87
2016-05-12T08:00:08.600Z,20
2016-05-12T08:01:07.619Z,20.1
2016-05-12T08:02:07.935Z,20.16
2016-05-12T08:03:08.234Z,20.42
2016-05-12T08:04:12.580Z,20.51
2016-05-12T08:05:09.958Z,20.64
2016-05-12T08:06:10.649Z,20.64
2016-05-12T08:07:10.277Z,20.64
2016-05-12T08:08:10.232Z,20.59
2016-05-12T08:09:10.953Z,20.59
2016-05-12T08:10:10.128Z,20.64
2016-05-12T08:11:10.194Z,20.59
2016-05-12T08:12:12.837Z,20.64
2016-05-12T08:13:11.683Z,20.56
2016-05-12T08:14:12.545Z,20.61
2016-05-12T08:15:09.610Z,20.64
2016-05-12T08:16:08.941Z,20.59
2016-05-12T08:17:08.553Z,20.58
2016-05-12T08:18:09.057Z,20.59
2016-05-12T08:19:08.902Z,20.62
2016-05-12T08:20:06.529Z,20.64
2016-05-12T08:21:06.658Z,20.59
2016-05-12T08:22:06.598Z,20.74
2016-05-12T08:23:07.147Z,20.68
2016-05-12T08:24:06.697Z,20.74
2016-05-12T08:25:06.715Z,20.72
2016-05-12T08:26:06.795Z,20.77
2016-05-12T08:27:06.658Z,20.77
2016-05-12T08:28:06.942Z,20.72
2016-05-12T08:29:06.897Z,20.84
2016-05-12T08:30:06.963Z,20.81
2016-05-12T08:31:09.263Z,20.84
2016-05-12T08:32:07.359Z,20.84
2016-05-12T08:33:07.128Z,20.91
2016-05-12T08:34:12.084Z,20.81
2016-05-12T08:35:10.195Z,21.01
2016-05-12T08:36:11.433Z,20.93
2016-05-12T08:37:15.763Z,21.13
2016-05-12T08:38:15.172Z,21.01
2016-05-12T08:39:15.285Z,20.99
2016-05-12T08:40:16.099Z,21.11
2016-05-12T08:41:15.868Z,21.06
2016-05-12T08:42:14.776Z,21.14
2016-05-12T08:43:14.310Z,21.19
2016-05-12T08:44:13.126Z,21.19
2016-05-12T08:45:15.191Z,21.17
2016-05-12T08:46:12.084Z,21.21
2016-05-12T08:47:11.712Z,21.21
2016-05-12T08:48:12.012Z,21.32
2016-05-12T08:49:11.139Z,21.41
2016-05-12T08:50:12.376Z,21.41
2016-05-12T08:51:11.910Z,21.41
2016-05-12T08:52:13.569Z,21.42
2016-05-12T08:53:12.775Z,21.53
2016-05-12T08:54:16.934Z,21.53
2016-05-12T08:55:16.295Z,21.56
2016-05-12T08:56:16.768Z,21.67
2016-05-12T08:57:18.598Z,21.75
2016-05-12T08:58:17.303Z,21.71
2016-05-12T08:59:15.682Z,21.81
2016-05-12T09:00:15.731Z,21.83
2016-05-12T09:01:12.921Z,21.81
2016-05-12T09:02:14.550Z,21.85
2016-05-12T09:03:12.067Z,21.91
2016-05-12T09:04:12.836Z,21.97
2016-05-12T09:05:08.322Z,22.06
2016-05-12T09:06:09.513Z,21.98
2016-05-12T09:07:08.610Z,22.09
2016-05-12T09:08:11.940Z,22.09
2016-05-12T09:09:08.661Z,22.22
2016-05-12T09:10:08.711Z,22.13
2016-05-12T09:11:08.808Z,22.17
2016-05-12T09:12:08.701Z,22.28
2016-05-12T09:13:09.657Z,22.31
2016-05-12T09:14:09.112Z,22.38
2016-05-12T09:15:09.491Z,22.46
2016-05-12T09:16:09.009Z,22.57
2016-05-12T09:17:09.027Z,22.5
2016-05-12T09:18:09.077Z,22.59
2016-05-12T09:19:09.188Z,22.6
2016-05-12T09:20:09.020Z,22.65
2016-05-12T09:21:09.210Z,22.69
2016-05-12T09:22:08.931Z,22.83
2016-05-12T09:23:09.309Z,22.84
2016-05-12T09:24:09.405Z,22.9
2016-05-12T09:25:09.376Z,22.89
2016-05-12T09:26:11.848Z,23.08
2016-05-12T09:27:09.475Z,23.22
2016-05-12T09:28:09.509Z,23.23
2016-05-12T09:29:09.606Z,23.29
2016-05-12T09:30:09.734Z,23.31
2016-05-12T09:31:11.064Z,23.31
2016-05-12T09:32:10.473Z,23.31
2016-05-12T09:33:11.461Z,23.31
2016-05-12T09:34:09.885Z,23.42
2016-05-12T09:35:09.731Z,23.38
2016-05-12T09:36:10.016Z,23.46
2016-05-12T09:37:10.191Z,23.53
2016-05-12T09:38:10.318Z,23.58
2016-05-12T09:39:10.086Z,23.68
2016-05-12T09:40:10.105Z,23.79
2016-05-12T09:41:12.326Z,23.83
2016-05-12T09:42:10.157Z,24.05
2016-05-12T09:43:10.206Z,24.16
2016-05-12T09:44:10.255Z,24.22
2016-05-12T09:45:10.337Z,24.26
2016-05-12T09:46:10.370Z,24.35
2016-05-12T09:47:10.264Z,24.37
2016-05-12T09:48:10.438Z,24.42
2016-05-12T09:49:10.676Z,24.44
2016-05-12T09:50:10.944Z,24.41
2016-05-12T09:51:10.884Z,24.54
2016-05-12T09:52:10.465Z,24.53
2016-05-12T09:53:10.967Z,24.68
2016-05-12T09:54:11.032Z,24.71
2016-05-12T09:55:10.848Z,24.9
2016-05-12T09:56:11.226Z,24.92
2016-05-12T09:57:10.947Z,24.97
2016-05-12T09:58:10.997Z,24.98
2016-05-12T09:59:10.936Z,25.02
2016-05-12T10:00:10.830Z,25.12
2016-05-12T10:01:11.473Z,25.19
2016-05-12T10:02:10.928Z,25.22
2016-05-12T10:03:11.151Z,25.3
2016-05-12T10:04:11.264Z,25.44
2016-05-12T10:05:11.078Z,25.47
2016-05-12T10:06:11.159Z,25.71
2016-05-12T10:07:11.317Z,25.82
2016-05-12T10:08:11.414Z,25.9
2016-05-12T10:09:11.527Z,25.91
2016-05-12T10:10:12.966Z,26.15
2016-05-12T10:11:12.344Z,26.15
2016-05-12T10:12:11.627Z,26.27
2016-05-12T10:13:11.755Z,26.42
2016-05-12T10:14:11.711Z,26.44
2016-05-12T10:15:12.213Z,26.64
2016-05-12T10:16:12.029Z,26.65
2016-05-12T10:17:11.844Z,26.69
2016-05-12T10:18:11.894Z,26.62
2016-05-12T10:19:11.913Z,26.72
2016-05-12T10:20:12.243Z,26.74
2016-05-12T10:21:15.387Z,26.76
2016-05-12T10:22:12.795Z,26.76
2016-05-12T10:23:12.190Z,26.73
2016-05-12T10:24:12.192Z,26.92
2016-05-12T10:25:12.288Z,26.99
2016-05-12T10:26:12.353Z,27.09
2016-05-12T10:27:12.325Z,27.36
2016-05-12T10:28:12.406Z,27.5
2016-05-12T10:29:12.298Z,27.71
2016-05-12T10:30:12.317Z,27.99
2016-05-12T10:31:12.350Z,28.46
2016-05-12T10:32:12.603Z,28.82
2016-05-12T10:33:12.670Z,29.38
2016-05-12T10:34:12.858Z,29.78
2016-05-12T10:35:12.611Z,30.09
2016-05-12T10:36:12.833Z,30.4
2016-05-12T10:37:12.758Z,31.08
2016-05-12T10:38:12.964Z,31.76
2016-05-12T10:39:13.200Z,32.76
2016-05-12T10:40:13.297Z,33.39
2016-05-12T10:41:13.549Z,34.02
2016-05-12T10:42:13.146Z,34.74
2016-05-12T10:43:13.227Z,35.6
2016-05-12T10:44:13.277Z,36.15
2016-05-12T10:45:13.294Z,35.88
2016-05-12T10:46:13.360Z,35.77
2016-05-12T10:47:13.285Z,36.01
2016-05-12T10:48:13.507Z,36.2
2016-05-12T10:49:13.227Z,36.75
2016-05-12T10:50:12.964Z,37.56
2016-05-12T10:51:13.671Z,38.44
2016-05-12T10:52:13.721Z,38.8
2016-05-12T10:53:14.129Z,38.58
2016-05-12T10:54:14.585Z,38.83
2016-05-12T10:55:13.665Z,38.66
2016-05-12T10:56:13.949Z,38.32
2016-05-12T10:57:13.843Z,38.49
2016-05-12T10:58:14.174Z,38.73
2016-05-12T10:59:14.114Z,38.52
2016-05-12T11:00:14.178Z,38.33
2016-05-12T11:01:14.228Z,38.49
2016-05-12T11:02:14.326Z,38.95
2016-05-12T11:03:14.374Z,38.95
2016-05-12T11:04:14.455Z,38.45
2016-05-12T11:05:14.302Z,38.08
2016-05-12T11:06:14.539Z,37.9
2016-05-12T11:07:14.573Z,37.96
2016-05-12T11:08:14.623Z,37.89
2016-05-12T11:09:14.687Z,38.15
2016-05-12T11:10:14.769Z,38.15
2016-05-12T11:11:14.803Z,37.55
2016-05-12T11:12:14.867Z,36.83
2016-05-12T11:13:14.824Z,36.36
2016-05-12T11:14:14.982Z,36.6
2016-05-12T11:15:15.172Z,36.67
2016-05-12T11:16:15.238Z,36.8
2016-05-12T11:17:15.755Z,36.97
2016-05-12T11:18:15.212Z,36.92
2016-05-12T11:19:15.261Z,36.8
2016-05-12T11:20:15.498Z,36.64
2016-05-12T11:21:15.470Z,36.64
2016-05-12T11:22:15.723Z,36.98
2016-05-12T11:23:15.725Z,37.7
2016-05-12T11:24:15.462Z,38.44
2016-05-12T11:25:15.606Z,39.15
2016-05-12T11:26:15.921Z,39.98
2016-05-12T11:27:16.048Z,40.38
2016-05-12T11:28:15.864Z,40.26
2016-05-12T11:29:16.023Z,40.38
2016-05-12T11:30:15.807Z,40.87
2016-05-12T11:31:16.184Z,40.76
2016-05-12T11:32:16.608Z,40.79
2016-05-12T11:33:16.174Z,40.57
2016-05-12T11:34:15.973Z,40.1
2016-05-12T11:35:16.413Z,40.14
2016-05-12T11:36:16.901Z,40.1
2016-05-12T11:37:17.247Z,39.9
2016-05-12T11:38:16.234Z,40.14
2016-05-12T11:39:16.549Z,40.27
2016-05-12T11:40:16.928Z,40.68
2016-05-12T11:41:16.914Z,41.2
2016-05-12T11:42:16.432Z,41.58
2016-05-12T11:43:17.764Z,41.78
2016-05-12T11:44:16.953Z,42.12
2016-05-12T11:45:16.785Z,42.42
2016-05-12T11:46:17.569Z,42.47
2016-05-12T11:47:17.524Z,41.96
2016-05-12T11:48:17.027Z,41.13
2016-05-12T11:49:16.920Z,40.38
2016-05-12T11:50:16.939Z,39.52
2016-05-12T11:51:17.504Z,38.73
2016-05-12T11:52:17.053Z,38.12
2016-05-12T11:53:17.477Z,37.88
2016-05-12T11:54:18.059Z,38.22
2016-05-12T11:55:17.530Z,38.58
2016-05-12T11:56:17.501Z,38.98
2016-05-12T11:57:17.551Z,39.17
2016-05-12T11:58:17.413Z,39.03
2016-05-12T11:59:17.462Z,38.76
2016-05-12T12:00:17.700Z,38.57
2016-05-12T12:01:17.843Z,38.71
2016-05-12T12:02:17.627Z,38.82
2016-05-12T12:03:19.162Z,39.15
2016-05-12T12:04:17.992Z,39.56
2016-05-12T12:05:18.291Z,39.69
2016-05-12T12:06:18.059Z,39.36
2016-05-12T12:07:18.109Z,38.99
2016-05-12T12:08:18.174Z,38.6
2016-05-12T12:09:18.209Z,38.03
2016-05-12T12:10:18.305Z,37.8
2016-05-12T12:11:19.213Z,37.5
2016-05-12T12:12:18.310Z,37.23
2016-05-12T12:13:18.422Z,36.67
2016-05-12T12:14:18.487Z,36.23
2016-05-12T12:15:18.943Z,35.63
2016-05-12T12:16:18.461Z,35.17
2016-05-12T12:17:18.792Z,34.63
2016-05-12T12:18:18.764Z,34.2
2016-05-12T12:19:18.610Z,33.78
2016-05-12T12:20:18.754Z,33.3
2016-05-12T12:21:20.537Z,32.89
2016-05-12T12:22:19.103Z,32.52
2016-05-12T12:23:19.027Z,32.2
2016-05-12T12:24:19.077Z,31.8
2016-05-12T12:25:19.079Z,31.64
2016-05-12T12:26:19.145Z,31.54
2016-05-12T12:27:19.882Z,31.4
2016-05-12T12:28:19.384Z,31.36
2016-05-12T12:29:19.309Z,31.57
2016-05-12T12:30:19.326Z,32
2016-05-12T12:31:19.408Z,32.32
2016-05-12T12:32:19.521Z,32.54
2016-05-12T12:33:19.507Z,32.52
2016-05-12T12:34:19.541Z,32.47
2016-05-12T12:35:19.434Z,32.52
2016-05-12T12:36:19.797Z,32.47
2016-05-12T12:37:19.768Z,32.36
2016-05-12T12:38:19.771Z,32.22
2016-05-12T12:39:20.273Z,32.02
2016-05-12T12:40:20.323Z,32.1
2016-05-12T12:41:20.123Z,32.27
2016-05-12T12:42:20.313Z,32.74
2016-05-12T12:43:20.597Z,33.58
2016-05-12T12:44:19.911Z,34.39
2016-05-12T12:45:20.149Z,35.15
2016-05-12T12:46:20.636Z,35.67
2016-05-12T12:47:20.747Z,35.74
2016-05-12T12:48:20.954Z,35.6
2016-05-12T12:49:20.377Z,35.36
2016-05-12T12:50:20.256Z,34.98
2016-05-12T12:51:20.837Z,34.58
2016-05-12T12:52:20.527Z,34.23
2016-05-12T12:53:20.671Z,34.26
2016-05-12T12:54:20.501Z,34.64
2016-05-12T12:55:21.801Z,35.15
2016-05-12T12:56:20.788Z,35.91